createdAt,value
2018-12-12T00:01:19.130Z,1.40
2018-12-12T00:03:55.118Z,1.30
2018-12-12T00:06:30.524Z,1.30
2018-12-12T00:09:02.649Z,1.30
2018-12-12T00:11:36.516Z,1.30
2018-12-12T00:14:08.931Z,1.20
2018-12-12T00:16:42.264Z,1.20
2018-12-12T00:19:15.418Z,1.20
2018-12-12T00:21:47.588Z,1.30
2018-12-12T00:24:19.783Z,1.20
2018-12-12T00:26:51.948Z,1.20
2018-12-12T00:29:24.046Z,1.10
2018-12-12T00:31:56.118Z,1.00
2018-12-12T00:34:28.036Z,1.00
2018-12-12T00:37:00.250Z,0.90
2018-12-12T00:39:32.551Z,0.90
2018-12-12T00:42:04.461Z,0.80
2018-12-12T00:44:37.685Z,0.80
2018-12-12T00:47:10.006Z,0.80
2018-12-12T00:49:42.284Z,0.70
2018-12-12T00:52:14.388Z,0.60
2018-12-12T00:54:47.304Z,0.60
2018-12-12T00:57:20.538Z,0.50
2018-12-12T00:59:53.596Z,0.50
2018-12-12T01:02:25.726Z,0.40
2018-12-12T01:04:58.027Z,0.40
2018-12-12T01:07:30.651Z,0.30
2018-12-12T01:10:03.074Z,0.10
2018-12-12T01:12:35.076Z,0.10
2018-12-12T01:15:08.327Z,0.00
2018-12-12T01:17:42.485Z,0.10
2018-12-12T01:20:17.586Z,0.10
2018-12-12T01:22:51.069Z,0.00
2018-12-12T01:25:23.595Z,0.00
2018-12-12T01:27:55.588Z,-0.10
2018-12-12T01:30:27.931Z,0.10
2018-12-12T01:32:59.792Z,0.10
2018-12-12T01:35:32.177Z,0.10
2018-12-12T01:38:05.167Z,0.10
2018-12-12T01:40:38.089Z,0.20
2018-12-12T01:43:10.117Z,0.20
2018-12-12T01:45:43.018Z,0.20
2018-12-12T01:48:14.962Z,0.10
2018-12-12T01:50:46.904Z,0.10
2018-12-12T01:53:19.171Z,0.00
2018-12-12T01:55:51.439Z,0.00
2018-12-12T01:58:24.643Z,-0.20
2018-12-12T02:00:54.847Z,-0.20
2018-12-12T02:03:25.717Z,-0.30
2018-12-12T02:05:56.429Z,-0.20
2018-12-12T02:08:27.113Z,-0.30
2018-12-12T02:10:56.994Z,-0.30
2018-12-12T02:13:35.813Z,-0.30
2018-12-12T02:16:08.160Z,-0.40
2018-12-12T02:18:41.776Z,-0.40
2018-12-12T02:21:14.360Z,-0.50
2018-12-12T02:23:46.895Z,-0.50
2018-12-12T02:26:19.238Z,-0.50
2018-12-12T02:28:51.487Z,-0.60
2018-12-12T02:31:24.150Z,-0.60
2018-12-12T02:33:59.456Z,-0.70
2018-12-12T02:36:34.030Z,-0.70
2018-12-12T02:39:07.579Z,-0.80
2018-12-12T02:41:41.339Z,-0.80
2018-12-12T02:44:14.283Z,-0.80
2018-12-12T02:46:46.365Z,-0.90
2018-12-12T02:49:17.969Z,-0.80
2018-12-12T02:51:50.504Z,-0.80
2018-12-12T02:54:23.595Z,-0.80
2018-12-12T02:56:56.836Z,-0.90
2018-12-12T02:59:29.928Z,-0.90
2018-12-12T03:02:01.884Z,-0.90
2018-12-12T03:04:35.484Z,-0.90
2018-12-12T03:07:07.876Z,-0.90
2018-12-12T03:09:40.018Z,-0.90
2018-12-12T03:12:12.108Z,-0.90
2018-12-12T03:14:44.490Z,-0.80
2018-12-12T03:17:16.879Z,-0.80
2018-12-12T03:19:49.233Z,-0.80
2018-12-12T03:22:21.095Z,-0.80
2018-12-12T03:24:53.715Z,-0.70
2018-12-12T03:27:26.749Z,-0.60
2018-12-12T03:29:58.828Z,-0.40
2018-12-12T03:32:31.839Z,-0.20
2018-12-12T03:35:05.221Z,-0.20
2018-12-12T03:37:37.192Z,-0.20
2018-12-12T03:40:09.275Z,-0.30
2018-12-12T03:42:42.634Z,-0.10
2018-12-12T03:45:14.837Z,-0.10
2018-12-12T03:47:46.934Z,0.00
2018-12-12T03:50:20.817Z,0.00
2018-12-12T03:52:56.184Z,0.10
2018-12-12T03:55:29.284Z,0.20
2018-12-12T03:58:01.188Z,0.20
2018-12-12T04:00:33.425Z,0.30
2018-12-12T04:03:05.009Z,0.40
2018-12-12T04:05:37.458Z,0.40
2018-12-12T04:08:09.216Z,0.50
2018-12-12T04:10:40.619Z,0.50
2018-12-12T04:13:12.281Z,0.60
2018-12-12T04:15:43.950Z,0.60
2018-12-12T04:18:15.411Z,0.70
2018-12-12T04:20:47.421Z,0.70
2018-12-12T04:23:18.869Z,0.70
2018-12-12T04:25:50.035Z,0.80
2018-12-12T04:28:22.513Z,0.80
2018-12-12T04:30:54.642Z,1.00
2018-12-12T04:33:26.726Z,1.00
2018-12-12T04:35:58.272Z,1.00
2018-12-12T04:38:30.847Z,1.00
2018-12-12T04:41:03.542Z,1.00
2018-12-12T04:43:35.191Z,1.20
2018-12-12T04:46:07.304Z,1.20
2018-12-12T04:48:40.714Z,1.20
2018-12-12T04:51:12.540Z,1.30
2018-12-12T04:53:44.048Z,1.30
2018-12-12T04:56:16.300Z,1.40
2018-12-12T04:58:48.676Z,1.40
2018-12-12T05:01:20.698Z,1.40
2018-12-12T05:03:52.421Z,1.20
2018-12-12T05:06:24.425Z,1.10
2018-12-12T05:08:56.710Z,1.10
2018-12-12T05:11:32.320Z,1.10
2018-12-12T05:14:06.122Z,1.20
2018-12-12T05:16:38.804Z,1.30
2018-12-12T05:19:12.172Z,1.30
2018-12-12T05:21:46.631Z,1.40
2018-12-12T05:24:18.701Z,1.40
2018-12-12T05:26:50.348Z,1.30
2018-12-12T05:29:22.969Z,1.30
2018-12-12T05:31:55.079Z,1.30
2018-12-12T05:34:26.435Z,1.30
2018-12-12T05:36:58.572Z,1.20
2018-12-12T05:39:31.733Z,1.20
2018-12-12T05:42:03.913Z,1.10
2018-12-12T05:44:35.779Z,1.10
2018-12-12T05:47:07.344Z,1.00
2018-12-12T05:49:39.483Z,1.00
2018-12-12T05:52:10.877Z,1.00
2018-12-12T05:54:42.875Z,0.90
2018-12-12T05:57:14.307Z,0.90
2018-12-12T05:59:46.740Z,0.80
2018-12-12T06:02:18.327Z,0.80
2018-12-12T06:04:49.073Z,0.70
2018-12-12T06:07:19.991Z,0.70
2018-12-12T06:09:51.935Z,0.60
2018-12-12T06:12:23.387Z,0.50
2018-12-12T06:14:54.513Z,0.40
2018-12-12T06:17:25.795Z,0.40
2018-12-12T06:19:56.673Z,0.40
2018-12-12T06:22:27.879Z,0.40
2018-12-12T06:24:58.511Z,0.30
2018-12-12T06:27:29.565Z,0.30
2018-12-12T06:30:26.455Z,0.30
2018-12-12T06:33:00.023Z,0.30
2018-12-12T06:35:31.565Z,0.30
2018-12-12T06:38:02.637Z,0.30
2018-12-12T06:40:33.911Z,0.20
2018-12-12T06:43:05.667Z,0.20
2018-12-12T06:45:35.989Z,0.20
2018-12-12T06:48:06.894Z,0.10
2018-12-12T06:50:38.909Z,0.10
2018-12-12T06:53:09.483Z,0.20
2018-12-12T06:55:40.294Z,0.10
2018-12-12T06:58:12.571Z,0.10
2018-12-12T07:00:45.158Z,0.10
2018-12-12T07:03:15.816Z,0.00
2018-12-12T07:05:46.804Z,0.10
2018-12-12T07:08:18.046Z,0.00
2018-12-12T07:10:50.489Z,0.00
2018-12-12T07:13:21.214Z,-0.10
2018-12-12T07:15:51.824Z,-0.10
2018-12-12T07:18:22.340Z,-0.20
2018-12-12T07:20:53.646Z,-0.20
2018-12-12T07:23:24.184Z,-0.30
2018-12-12T07:25:54.734Z,-0.30
2018-12-12T07:28:26.652Z,-0.30
2018-12-12T07:30:57.512Z,-0.40
2018-12-12T07:33:28.682Z,-0.50
2018-12-12T07:35:59.750Z,-0.50
2018-12-12T07:38:31.200Z,-0.60
2018-12-12T07:41:02.592Z,-0.60
2018-12-12T07:43:35.359Z,-0.60
2018-12-12T07:46:12.025Z,-0.60
2018-12-12T07:48:45.890Z,-0.60
2018-12-12T07:51:34.934Z,-0.70
2018-12-12T07:54:09.668Z,-0.70
2018-12-12T07:56:40.652Z,-0.60
2018-12-12T07:59:11.909Z,-0.70
2018-12-12T08:01:44.073Z,-0.70
2018-12-12T08:04:16.113Z,-0.70
2018-12-12T08:06:48.159Z,-0.70
2018-12-12T08:09:19.293Z,-0.70
2018-12-12T08:11:50.437Z,-0.70
2018-12-12T08:14:21.666Z,-0.70
2018-12-12T08:16:53.338Z,-0.70
2018-12-12T08:19:24.374Z,-0.60
2018-12-12T08:21:55.727Z,-0.60
2018-12-12T08:24:27.119Z,-0.60
2018-12-12T08:26:58.036Z,-0.50
2018-12-12T08:29:29.811Z,-0.50
2018-12-12T08:32:01.356Z,-0.40
2018-12-12T08:34:33.443Z,-0.30
2018-12-12T08:37:05.278Z,-0.30
2018-12-12T08:39:36.243Z,-0.20
2018-12-12T08:42:07.783Z,-0.20
2018-12-12T08:44:39.045Z,-0.20
2018-12-12T08:47:10.093Z,-0.20
2018-12-12T08:49:41.345Z,-0.10
2018-12-12T08:52:13.737Z,-0.10
2018-12-12T08:54:44.563Z,0.00
2018-12-12T08:57:16.293Z,0.10
2018-12-12T08:59:47.156Z,0.10
2018-12-12T09:02:19.665Z,0.20
2018-12-12T09:04:51.107Z,0.30
2018-12-12T09:07:23.792Z,0.30
2018-12-12T09:09:56.007Z,0.40
2018-12-12T09:12:27.704Z,0.50
2018-12-12T09:14:59.149Z,0.60
2018-12-12T09:17:30.165Z,0.70
2018-12-12T09:20:01.474Z,0.80
2018-12-12T09:22:33.885Z,0.90
2018-12-12T09:25:05.699Z,1.00
2018-12-12T09:27:38.655Z,1.10
2018-12-12T09:30:12.021Z,1.20
2018-12-12T09:32:45.082Z,1.30
2018-12-12T09:35:35.588Z,1.50
2018-12-12T09:38:06.911Z,1.60
2018-12-12T09:40:38.100Z,1.70
2018-12-12T09:43:11.252Z,1.80
2018-12-12T09:45:43.396Z,1.90
2018-12-12T09:48:19.270Z,2.00
2018-12-12T09:50:49.190Z,2.10
2018-12-12T09:53:23.284Z,2.20
2018-12-12T09:55:55.098Z,2.20
2018-12-12T09:58:26.762Z,2.40
2018-12-12T10:00:58.485Z,2.50
2018-12-12T10:03:31.340Z,2.60
2018-12-12T10:06:03.823Z,2.70
2018-12-12T10:08:35.549Z,2.90
2018-12-12T10:11:07.334Z,3.00
2018-12-12T10:13:43.063Z,3.20
2018-12-12T10:16:16.830Z,3.30
2018-12-12T10:18:48.215Z,3.40
2018-12-12T10:21:21.153Z,3.50
2018-12-12T10:23:52.181Z,3.60
2018-12-12T10:26:23.499Z,3.80
2018-12-12T10:28:55.957Z,3.90
2018-12-12T10:31:26.897Z,4.00
2018-12-12T10:33:58.137Z,4.00
2018-12-12T10:36:31.192Z,4.00
2018-12-12T10:39:02.465Z,4.00
2018-12-12T10:41:35.129Z,4.00
2018-12-12T10:44:06.320Z,4.10
2018-12-12T10:46:37.237Z,4.20
2018-12-12T10:49:08.373Z,4.30
2018-12-12T10:51:39.227Z,4.30
2018-12-12T10:54:10.183Z,4.30
2018-12-12T10:56:42.291Z,4.40
2018-12-12T10:59:13.665Z,4.40
2018-12-12T11:01:48.765Z,4.50
2018-12-12T11:04:21.061Z,4.60
2018-12-12T11:06:52.991Z,4.70
2018-12-12T11:09:24.599Z,4.80
2018-12-12T11:11:56.694Z,4.90
2018-12-12T11:14:28.317Z,4.90
2018-12-12T11:16:59.432Z,5.00
2018-12-12T11:19:30.537Z,5.10
2018-12-12T11:22:01.554Z,5.20
2018-12-12T11:24:34.204Z,5.30
2018-12-12T11:27:05.084Z,5.30
2018-12-12T11:29:37.004Z,5.40
2018-12-12T11:32:08.350Z,5.50
2018-12-12T11:34:39.455Z,5.50
2018-12-12T11:37:13.185Z,5.50
2018-12-12T11:39:47.578Z,5.60
2018-12-12T11:42:20.202Z,5.60
2018-12-12T11:44:52.190Z,5.70
2018-12-12T11:47:23.374Z,5.80
2018-12-12T11:49:54.151Z,5.80
2018-12-12T11:52:26.351Z,5.90
2018-12-12T11:54:57.981Z,5.90
2018-12-12T11:57:28.982Z,5.90
2018-12-12T12:00:00.414Z,6.00
2018-12-12T12:02:35.594Z,6.00
2018-12-12T12:05:07.387Z,6.00
2018-12-12T12:07:39.129Z,6.10
2018-12-12T12:10:11.554Z,6.10
2018-12-12T12:12:43.594Z,6.20
2018-12-12T12:15:17.415Z,6.30
2018-12-12T12:17:49.403Z,6.30
2018-12-12T12:20:20.353Z,6.40
2018-12-12T12:22:51.730Z,6.40
2018-12-12T12:25:23.285Z,6.40
2018-12-12T12:27:55.673Z,6.50
2018-12-12T12:30:27.825Z,6.60
2018-12-12T12:32:59.011Z,6.50
2018-12-12T12:35:31.126Z,6.50
2018-12-12T12:38:03.039Z,6.60
2018-12-12T12:40:35.175Z,6.60
2018-12-12T12:43:06.269Z,6.60
2018-12-12T12:45:37.285Z,6.60
2018-12-12T12:48:08.449Z,6.60
2018-12-12T12:50:39.913Z,6.70
2018-12-12T12:53:10.779Z,6.70
2018-12-12T12:55:41.895Z,6.70
2018-12-12T12:58:13.029Z,6.60
2018-12-12T13:00:45.587Z,6.70
2018-12-12T13:03:17.027Z,6.80
2018-12-12T13:09:07.745Z,6.90
2018-12-12T13:11:39.354Z,6.90
2018-12-12T13:14:10.290Z,6.80
2018-12-12T13:16:42.251Z,6.80
2018-12-12T13:19:13.205Z,6.70
2018-12-12T13:21:43.999Z,6.70
2018-12-12T13:24:14.641Z,6.70
2018-12-12T13:26:45.644Z,6.70
2018-12-12T13:29:17.834Z,6.70
2018-12-12T13:31:50.121Z,6.70
2018-12-12T13:34:21.328Z,6.70
2018-12-12T13:36:52.033Z,6.80
2018-12-12T13:39:23.325Z,6.70
2018-12-12T13:41:54.953Z,6.80
2018-12-12T13:44:25.587Z,6.70
2018-12-12T13:46:57.225Z,6.70
2018-12-12T13:49:28.087Z,6.60
2018-12-12T13:51:59.024Z,6.60
2018-12-12T13:54:29.478Z,6.60
2018-12-12T13:57:00.211Z,6.50
2018-12-12T13:59:32.341Z,6.50
2018-12-12T14:02:03.388Z,6.50
2018-12-12T14:04:35.279Z,6.50
2018-12-12T14:07:06.367Z,6.50
2018-12-12T14:09:37.952Z,6.40
2018-12-12T14:12:09.504Z,6.30
2018-12-12T14:14:41.047Z,6.30
2018-12-12T14:17:13.181Z,6.20
2018-12-12T14:19:45.011Z,6.20
2018-12-12T14:22:16.400Z,6.10
2018-12-12T14:24:47.679Z,6.10
2018-12-12T14:27:21.093Z,6.00
2018-12-12T14:29:55.013Z,6.00
2018-12-12T14:32:28.544Z,5.90
2018-12-12T14:35:01.303Z,5.80
2018-12-12T14:37:32.591Z,5.80
2018-12-12T14:40:04.762Z,5.70
2018-12-12T14:42:37.259Z,5.60
2018-12-12T14:45:09.658Z,5.60
2018-12-12T14:47:43.334Z,5.50
2018-12-12T14:50:18.401Z,5.40
2018-12-12T14:52:50.803Z,5.40
2018-12-12T14:55:22.344Z,5.40
2018-12-12T14:57:53.814Z,5.40
2018-12-12T15:00:27.114Z,5.30
2018-12-12T15:02:59.283Z,5.20
2018-12-12T15:05:30.470Z,5.20
2018-12-12T15:08:01.373Z,5.10
2018-12-12T15:10:33.428Z,5.10
2018-12-12T15:13:06.695Z,5.00
2018-12-12T15:15:44.880Z,4.90
2018-12-12T15:18:18.377Z,4.80
2018-12-12T15:20:50.160Z,4.70
2018-12-12T15:23:21.830Z,4.50
2018-12-12T15:25:54.016Z,4.40
2018-12-12T15:28:26.559Z,4.40
2018-12-12T15:30:58.612Z,4.30
2018-12-12T15:33:32.176Z,4.30
2018-12-12T15:36:04.119Z,4.20
2018-12-12T15:38:37.418Z,4.10
2018-12-12T15:41:11.639Z,4.00
2018-12-12T15:43:45.531Z,4.00
2018-12-12T15:46:18.539Z,3.90
2018-12-12T15:48:51.359Z,3.90
2018-12-12T15:51:22.723Z,3.80
2018-12-12T15:53:53.613Z,3.80
2018-12-12T15:56:24.829Z,3.70
2018-12-12T15:58:56.113Z,3.60
2018-12-12T16:01:28.075Z,3.60
2018-12-12T16:04:00.193Z,3.50
2018-12-12T16:06:31.688Z,3.40
2018-12-12T16:09:03.357Z,3.30
2018-12-12T16:11:36.103Z,3.30
2018-12-12T16:14:07.447Z,3.20
2018-12-12T16:16:38.205Z,3.20
2018-12-12T16:19:10.954Z,3.10
2018-12-12T16:21:42.979Z,3.00
2018-12-12T16:24:14.630Z,3.00
2018-12-12T16:26:45.975Z,2.90
2018-12-12T16:29:17.547Z,2.80
2018-12-12T16:31:48.603Z,2.80
2018-12-12T16:34:19.417Z,2.80
2018-12-12T16:36:50.770Z,2.70
2018-12-12T16:39:22.165Z,2.60
2018-12-12T16:41:53.653Z,2.60
2018-12-12T16:44:25.277Z,2.40
2018-12-12T16:47:12.935Z,2.40
2018-12-12T16:49:43.867Z,2.30
2018-12-12T16:52:16.115Z,2.30
2018-12-12T16:54:49.713Z,2.30
2018-12-12T16:57:38.201Z,2.30
2018-12-12T17:00:14.079Z,2.30
2018-12-12T17:02:45.358Z,2.20
2018-12-12T17:05:17.342Z,2.30
2018-12-12T17:07:48.544Z,2.30
2018-12-12T17:10:19.544Z,2.20
2018-12-12T17:12:50.612Z,2.20
2018-12-12T17:15:23.341Z,2.10
2018-12-12T17:17:54.518Z,2.00
2018-12-12T17:20:26.025Z,1.80
2018-12-12T17:22:58.063Z,1.70
2018-12-12T17:25:31.689Z,1.80
2018-12-12T17:28:03.145Z,1.80
2018-12-12T17:30:35.186Z,1.80
2018-12-12T17:36:09.362Z,1.80
2018-12-12T17:38:40.772Z,1.80
2018-12-12T17:41:12.882Z,1.80
2018-12-12T17:44:09.320Z,1.80
2018-12-12T17:47:03.293Z,1.80
2018-12-12T17:49:39.093Z,1.80
2018-12-12T17:52:11.134Z,1.90
2018-12-12T17:57:45.010Z,1.80
2018-12-12T18:00:17.882Z,1.80
2018-12-12T18:02:51.891Z,1.70
2018-12-12T18:05:43.298Z,1.60
2018-12-12T18:08:14.949Z,1.60
2018-12-12T18:10:45.907Z,1.50
2018-12-12T18:13:17.037Z,1.60
2018-12-12T18:15:51.236Z,1.50
2018-12-12T18:18:24.290Z,1.40
2018-12-12T18:20:56.770Z,1.20
2018-12-12T18:23:29.761Z,1.10
2018-12-12T18:26:03.166Z,0.90
2018-12-12T18:28:36.716Z,0.90
2018-12-12T18:31:08.270Z,0.90
2018-12-12T18:33:41.997Z,0.80
2018-12-12T18:36:18.653Z,0.80
2018-12-12T18:38:49.305Z,0.80
2018-12-12T18:41:20.830Z,0.90
2018-12-12T18:43:55.413Z,1.00
2018-12-12T18:46:26.987Z,1.10
2018-12-12T18:48:58.053Z,1.20
2018-12-12T18:51:31.866Z,1.30
2018-12-12T18:54:08.258Z,1.40
2018-12-12T18:56:43.212Z,1.40
2018-12-12T18:59:14.706Z,1.30
2018-12-12T19:01:46.059Z,1.30
2018-12-12T19:04:18.414Z,1.20
2018-12-12T19:06:50.187Z,1.20
2018-12-12T19:09:22.303Z,1.20
2018-12-12T19:11:54.212Z,1.10
2018-12-12T19:14:25.859Z,1.10
2018-12-12T19:16:57.449Z,1.10
2018-12-12T19:19:29.192Z,1.00
2018-12-12T19:22:00.449Z,1.00
2018-12-12T19:24:31.774Z,1.00
2018-12-12T19:27:03.126Z,1.10
2018-12-12T19:29:34.824Z,1.10
2018-12-12T19:32:07.386Z,1.10
2018-12-12T19:34:38.671Z,1.20
2018-12-12T19:37:09.629Z,1.10
2018-12-12T19:39:41.146Z,1.10
2018-12-12T19:42:12.828Z,1.10
2018-12-12T19:44:45.231Z,1.10
2018-12-12T19:47:16.650Z,1.10
2018-12-12T19:49:47.665Z,1.00
2018-12-12T19:52:19.515Z,1.00
2018-12-12T19:54:50.658Z,1.00
2018-12-12T19:57:22.389Z,1.00
2018-12-12T19:59:53.554Z,1.00
2018-12-12T20:02:25.243Z,1.00
2018-12-12T20:04:55.629Z,1.00
2018-12-12T20:07:26.225Z,1.00
2018-12-12T20:09:58.516Z,1.00
2018-12-12T20:12:30.319Z,0.90
2018-12-12T20:15:01.836Z,0.90
2018-12-12T20:17:34.741Z,0.80
2018-12-12T20:20:06.998Z,0.70
2018-12-12T20:22:40.942Z,0.70
2018-12-12T20:25:14.201Z,0.60
2018-12-12T20:27:47.225Z,0.60
2018-12-12T20:30:18.714Z,0.60
2018-12-12T20:32:50.216Z,0.60
2018-12-12T20:35:22.511Z,0.50
2018-12-12T20:37:54.127Z,0.50
2018-12-12T20:40:25.903Z,0.40
2018-12-12T20:42:57.414Z,0.40
2018-12-12T20:45:29.146Z,0.40
2018-12-12T20:48:00.219Z,0.50
2018-12-12T20:50:31.615Z,0.60
2018-12-12T20:53:02.940Z,0.60
2018-12-12T20:55:34.930Z,0.60
2018-12-12T20:58:06.048Z,0.70
2018-12-12T21:00:38.019Z,0.70
2018-12-12T21:03:09.136Z,0.80
2018-12-12T21:05:41.269Z,0.90
2018-12-12T21:08:13.551Z,0.90
2018-12-12T21:10:44.720Z,0.90
2018-12-12T21:13:17.449Z,1.00
2018-12-12T21:15:48.784Z,1.00
2018-12-12T21:18:41.169Z,1.00
2018-12-12T21:21:15.428Z,1.00
2018-12-12T21:23:45.980Z,1.00
2018-12-12T21:26:18.116Z,1.00
2018-12-12T21:28:48.750Z,1.00
2018-12-12T21:31:19.203Z,1.00
2018-12-12T21:33:51.097Z,1.00
2018-12-12T21:36:21.790Z,1.00
2018-12-12T21:38:52.880Z,1.00
2018-12-12T21:41:24.327Z,1.00
2018-12-12T21:43:55.983Z,1.00
2018-12-12T21:46:30.149Z,1.10
2018-12-12T21:49:01.795Z,1.10
2018-12-12T21:51:34.829Z,1.00
2018-12-12T21:54:08.105Z,1.00
2018-12-12T21:56:41.017Z,0.90
2018-12-12T21:59:12.449Z,0.90
2018-12-12T22:01:43.283Z,0.90
2018-12-12T22:04:15.681Z,0.90
2018-12-12T22:06:48.618Z,0.90
2018-12-12T22:09:26.736Z,0.90
2018-12-12T22:12:01.863Z,0.90
2018-12-12T22:14:33.556Z,0.90
2018-12-12T22:17:06.046Z,0.80
2018-12-12T22:19:37.629Z,0.90
2018-12-12T22:22:10.334Z,0.80
2018-12-12T22:24:41.240Z,0.80
2018-12-12T22:27:12.022Z,0.80
2018-12-12T22:29:42.892Z,0.80
2018-12-12T22:32:13.525Z,0.80
2018-12-12T22:34:44.743Z,0.80
2018-12-12T22:37:15.567Z,0.80
2018-12-12T22:39:46.545Z,0.90
2018-12-12T22:42:17.690Z,1.00
2018-12-12T22:44:48.219Z,1.00
2018-12-12T22:47:19.089Z,1.10
2018-12-12T22:49:50.398Z,1.20
2018-12-12T22:52:21.621Z,1.10
2018-12-12T22:54:52.327Z,1.20
2018-12-12T22:57:25.291Z,1.10
2018-12-12T22:59:56.816Z,1.10
2018-12-12T23:02:27.588Z,1.10
2018-12-12T23:04:58.001Z,1.10
2018-12-12T23:07:29.804Z,1.10
2018-12-12T23:10:01.446Z,1.20
2018-12-12T23:12:32.487Z,1.10
2018-12-12T23:15:03.965Z,1.20
2018-12-12T23:17:35.214Z,1.20
2018-12-12T23:20:06.354Z,1.10
2018-12-12T23:22:37.057Z,1.10
2018-12-12T23:25:07.845Z,1.10
2018-12-12T23:27:39.739Z,1.10
2018-12-12T23:30:10.690Z,1.00
2018-12-12T23:32:42.659Z,1.00
2018-12-12T23:35:13.743Z,1.00
2018-12-12T23:37:44.990Z,0.90
2018-12-12T23:40:15.513Z,1.00
2018-12-12T23:42:47.046Z,0.90
2018-12-12T23:45:18.413Z,0.90
2018-12-12T23:47:49.861Z,0.90
2018-12-12T23:50:20.700Z,0.80
2018-12-12T23:52:51.113Z,0.90
2018-12-12T23:55:22.068Z,0.80
2018-12-12T23:57:54.024Z,0.80
